EUS35RD LGSK-LTAI
Flight info
| Callsign | EUS35RD |
|---|---|
| Flight time | N/A |
| Altitude | 37000 |
| Route | ETEKA UW58 ETRUD UN130 PIVOS UG802 IMR UN135 BAPSI/N0427F270 N135 BALSU DCT KOZLU |
| Aircraft | B738/M-SDE2E3FGHIRWXY/LB1 |
Departure
| Time | 2026-05-08 14:40 |
|---|---|
| Airport | Skiathos Island National Airport (LGSK) |
Arrival
| Time | N/A |
|---|---|
| Airport | Antalya International Airport (LTAI) |
| Time | Latitude | Longitude | Altitude | Speed | Heading |
|---|---|---|---|---|---|
| 2026-05-08 14:29 | 39.17876 | 23.50214 | 62 ft | 0 kts | 330° |
| 2026-05-08 14:32 | 39.17868 | 23.50220 | 62 ft | 4 kts | 330° |
| 2026-05-08 14:33 | 39.17848 | 23.50235 | 55 ft | 3 kts | 329° |
| 2026-05-08 14:33 | 39.17831 | 23.50256 | 55 ft | 4 kts | 286° |
| 2026-05-08 14:33 | 39.17834 | 23.50280 | 52 ft | 4 kts | 215° |
| 2026-05-08 14:33 | 39.17858 | 23.50293 | 55 ft | 4 kts | 199° |
| 2026-05-08 14:34 | 39.17863 | 23.50296 | 56 ft | 0 kts | 199° |
| 2026-05-08 14:36 | 39.17862 | 23.50295 | 56 ft | 1 kts | 199° |
| 2026-05-08 14:36 | 39.17824 | 23.50279 | 52 ft | 11 kts | 199° |
| 2026-05-08 14:36 | 39.17736 | 23.50249 | 58 ft | 14 kts | 185° |
| 2026-05-08 14:36 | 39.17639 | 23.50227 | 53 ft | 11 kts | 198° |
| 2026-05-08 14:37 | 39.17571 | 23.50233 | 53 ft | 11 kts | 134° |
| 2026-05-08 14:37 | 39.17505 | 23.50274 | 50 ft | 12 kts | 189° |
| 2026-05-08 14:37 | 39.17411 | 23.50235 | 44 ft | 16 kts | 198° |
| 2026-05-08 14:37 | 39.17285 | 23.50179 | 34 ft | 22 kts | 199° |
| 2026-05-08 14:38 | 39.17149 | 23.50118 | 27 ft | 20 kts | 199° |
| 2026-05-08 14:38 | 39.17050 | 23.50091 | 20 ft | 11 kts | 172° |
| 2026-05-08 14:38 | 39.17026 | 23.50065 | 19 ft | 2 kts | 301° |
| 2026-05-08 14:38 | 39.17039 | 23.50066 | 19 ft | 0 kts | 15° |
| 2026-05-08 14:39 | 39.17206 | 23.50141 | 29 ft | 69 kts | 19° |
| 2026-05-08 14:39 | 39.17935 | 23.50466 | 85 ft | 148 kts | 19° |
| 2026-05-08 14:40 | 39.18990 | 23.50940 | 857 ft | 167 kts | 20° |
| 2026-05-08 14:40 | 39.20124 | 23.51437 | 1906 ft | 178 kts | 22° |
| 2026-05-08 14:40 | 39.21398 | 23.52007 | 2484 ft | 210 kts | 21° |
| 2026-05-08 14:40 | 39.22360 | 23.52435 | 2634 ft | 230 kts | 20° |
| 2026-05-08 14:41 | 39.23947 | 23.53140 | 3059 ft | 252 kts | 20° |
| 2026-05-08 14:41 | 39.25672 | 23.53971 | 3532 ft | 273 kts | 29° |
| 2026-05-08 14:41 | 39.27358 | 23.56336 | 4731 ft | 278 kts | 70° |
| 2026-05-08 14:41 | 39.27615 | 23.57989 | 5291 ft | 281 kts | 92° |
| 2026-05-08 14:42 | 39.27295 | 23.60481 | 6127 ft | 286 kts | 110° |
| 2026-05-08 14:42 | 39.26630 | 23.62940 | 6912 ft | 294 kts | 113° |
| 2026-05-08 14:42 | 39.25911 | 23.65443 | 7721 ft | 302 kts | 114° |
| 2026-05-08 14:42 | 39.25160 | 23.68010 | 8530 ft | 309 kts | 114° |
| 2026-05-08 14:43 | 39.24394 | 23.70639 | 9359 ft | 317 kts | 114° |
| 2026-05-08 14:43 | 39.23613 | 23.73336 | 10148 ft | 325 kts | 114° |
| 2026-05-08 14:43 | 39.22821 | 23.76086 | 10927 ft | 329 kts | 114° |
| 2026-05-08 14:43 | 39.22024 | 23.78869 | 11809 ft | 332 kts | 114° |
| 2026-05-08 14:44 | 39.21221 | 23.81676 | 12642 ft | 336 kts | 114° |
| 2026-05-08 14:44 | 39.20407 | 23.84520 | 13470 ft | 340 kts | 113° |
| 2026-05-08 14:44 | 39.19584 | 23.87397 | 14241 ft | 344 kts | 113° |
| 2026-05-08 14:44 | 39.18750 | 23.90315 | 15004 ft | 348 kts | 113° |
| 2026-05-08 14:45 | 39.17908 | 23.93256 | 15756 ft | 351 kts | 113° |
| 2026-05-08 14:45 | 39.17057 | 23.96219 | 16506 ft | 355 kts | 113° |
| 2026-05-08 14:45 | 39.16192 | 23.99229 | 17273 ft | 359 kts | 113° |
| 2026-05-08 14:45 | 39.15570 | 24.02338 | 17860 ft | 372 kts | 98° |
| 2026-05-08 14:46 | 39.15315 | 24.05745 | 18058 ft | 393 kts | 95° |
| 2026-05-08 14:46 | 39.15129 | 24.09352 | 18228 ft | 413 kts | 94° |
| 2026-05-08 14:46 | 39.14951 | 24.13126 | 18540 ft | 427 kts | 94° |
| 2026-05-08 14:46 | 39.14759 | 24.16973 | 19055 ft | 432 kts | 95° |
| 2026-05-08 14:47 | 39.14549 | 24.20867 | 19655 ft | 436 kts | 95° |
| 2026-05-08 14:47 | 39.14325 | 24.24732 | 20227 ft | 440 kts | 96° |
| 2026-05-08 14:47 | 39.14085 | 24.28681 | 20765 ft | 445 kts | 96° |
| 2026-05-08 14:47 | 39.13837 | 24.32674 | 21287 ft | 450 kts | 96° |
| 2026-05-08 14:48 | 39.13582 | 24.36710 | 21816 ft | 454 kts | 96° |
| 2026-05-08 14:48 | 39.13323 | 24.40782 | 22330 ft | 459 kts | 96° |
| 2026-05-08 14:48 | 39.13061 | 24.44903 | 22840 ft | 463 kts | 96° |
| 2026-05-08 14:48 | 39.12795 | 24.49061 | 23332 ft | 468 kts | 96° |
| 2026-05-08 14:49 | 39.12526 | 24.53249 | 23786 ft | 472 kts | 96° |
| 2026-05-08 14:49 | 39.12253 | 24.57483 | 24196 ft | 476 kts | 96° |
| 2026-05-08 14:49 | 39.11976 | 24.61748 | 24624 ft | 480 kts | 96° |
| 2026-05-08 14:49 | 39.11696 | 24.66051 | 25040 ft | 483 kts | 96° |
| 2026-05-08 14:50 | 39.11413 | 24.70379 | 25449 ft | 487 kts | 96° |
| 2026-05-08 14:50 | 39.11112 | 24.74740 | 25843 ft | 490 kts | 98° |
| 2026-05-08 14:50 | 39.10355 | 24.79019 | 26203 ft | 490 kts | 112° |
| 2026-05-08 14:50 | 39.08934 | 24.82981 | 26601 ft | 487 kts | 125° |
| 2026-05-08 14:51 | 39.06929 | 24.86445 | 26979 ft | 480 kts | 139° |
| 2026-05-08 14:51 | 39.04582 | 24.89498 | 27367 ft | 481 kts | 141° |
| 2026-05-08 14:51 | 39.02183 | 24.92512 | 27712 ft | 484 kts | 142° |
| 2026-05-08 14:51 | 38.99754 | 24.95548 | 28061 ft | 487 kts | 142° |
| 2026-05-08 14:52 | 38.97362 | 24.98560 | 28406 ft | 491 kts | 141° |
| 2026-05-08 14:52 | 38.92488 | 25.04786 | 29113 ft | 497 kts | 141° |
| 2026-05-08 14:52 | 38.90041 | 25.07939 | 29454 ft | 499 kts | 141° |
| 2026-05-08 14:53 | 38.87585 | 25.11109 | 29776 ft | 502 kts | 141° |
| 2026-05-08 14:53 | 38.85111 | 25.14300 | 30083 ft | 505 kts | 141° |
| 2026-05-08 14:53 | 38.82627 | 25.17501 | 30371 ft | 507 kts | 141° |
| 2026-05-08 14:53 | 38.80139 | 25.20703 | 30650 ft | 509 kts | 141° |
| 2026-05-08 14:54 | 38.77635 | 25.23920 | 30942 ft | 510 kts | 141° |
| 2026-05-08 14:54 | 38.75129 | 25.27137 | 31298 ft | 509 kts | 141° |
| 2026-05-08 14:54 | 38.72630 | 25.30341 | 31727 ft | 507 kts | 141° |
| 2026-05-08 14:54 | 38.70143 | 25.33527 | 32178 ft | 504 kts | 141° |
| 2026-05-08 14:55 | 38.67693 | 25.36661 | 32580 ft | 502 kts | 141° |
| 2026-05-08 14:55 | 38.65223 | 25.39816 | 32950 ft | 501 kts | 141° |
| 2026-05-08 14:55 | 38.62753 | 25.42965 | 33308 ft | 501 kts | 141° |
| 2026-05-08 14:55 | 38.60284 | 25.46110 | 33677 ft | 499 kts | 141° |
| 2026-05-08 14:56 | 38.57825 | 25.49241 | 34047 ft | 498 kts | 141° |
| 2026-05-08 14:56 | 38.55375 | 25.52357 | 34372 ft | 497 kts | 141° |
| 2026-05-08 14:56 | 38.52928 | 25.55467 | 34687 ft | 496 kts | 141° |
| 2026-05-08 14:56 | 38.50489 | 25.58564 | 34982 ft | 495 kts | 141° |
| 2026-05-08 14:57 | 38.48048 | 25.61659 | 35263 ft | 494 kts | 141° |
| 2026-05-08 14:57 | 38.45609 | 25.64749 | 35558 ft | 493 kts | 141° |
| 2026-05-08 14:57 | 38.43178 | 25.67826 | 35862 ft | 492 kts | 141° |
| 2026-05-08 14:57 | 38.40779 | 25.70932 | 36148 ft | 494 kts | 135° |
| 2026-05-08 14:58 | 38.38806 | 25.74558 | 36413 ft | 502 kts | 121° |
| 2026-05-08 14:58 | 38.37472 | 25.78678 | 36737 ft | 505 kts | 108° |
| 2026-05-08 14:58 | 38.36827 | 25.83019 | 37042 ft | 505 kts | 96° |
| 2026-05-08 14:59 | 38.36353 | 25.92010 | 37101 ft | 511 kts | 94° |
| 2026-05-08 14:59 | 38.35543 | 26.05493 | 37096 ft | 504 kts | 96° |
| 2026-05-08 15:00 | 38.34903 | 26.14386 | 37087 ft | 503 kts | 94° |
| 2026-05-08 15:00 | 38.34795 | 26.23278 | 37105 ft | 501 kts | 91° |
| 2026-05-08 15:01 | 38.34545 | 26.32143 | 37103 ft | 500 kts | 93° |
| 2026-05-08 15:01 | 38.34162 | 26.40988 | 37103 ft | 500 kts | 93° |
| 2026-05-08 15:02 | 38.33793 | 26.49794 | 37111 ft | 501 kts | 93° |
| 2026-05-08 15:02 | 38.33440 | 26.58677 | 37108 ft | 503 kts | 93° |
| 2026-05-08 15:03 | 38.33086 | 26.67576 | 37104 ft | 504 kts | 93° |
| 2026-05-08 15:03 | 38.32722 | 26.76511 | 37113 ft | 505 kts | 93° |
| 2026-05-08 15:04 | 38.32350 | 26.85451 | 37108 ft | 505 kts | 93° |
| 2026-05-08 15:04 | 38.31972 | 26.94392 | 37107 ft | 506 kts | 93° |
| 2026-05-08 15:05 | 38.30872 | 27.03197 | 37109 ft | 503 kts | 109° |
| 2026-05-08 15:05 | 38.28190 | 27.11386 | 37103 ft | 501 kts | 117° |
| 2026-05-08 15:06 | 38.25319 | 27.19402 | 37098 ft | 500 kts | 117° |
| 2026-05-08 15:06 | 38.22501 | 27.27485 | 37098 ft | 499 kts | 116° |
| 2026-05-08 15:07 | 38.19726 | 27.35555 | 37114 ft | 498 kts | 116° |
| 2026-05-08 15:07 | 38.16942 | 27.43625 | 37114 ft | 497 kts | 116° |
| 2026-05-08 15:08 | 38.14633 | 27.50303 | 37118 ft | 497 kts | 116° |
| 2026-05-08 15:08 | 38.11389 | 27.59701 | 37124 ft | 497 kts | 116° |
| 2026-05-08 15:09 | 38.08610 | 27.67732 | 37133 ft | 497 kts | 116° |
| 2026-05-08 15:09 | 38.05820 | 27.75770 | 37139 ft | 500 kts | 116° |
| 2026-05-08 15:10 | 38.03011 | 27.83795 | 37122 ft | 502 kts | 118° |
| 2026-05-08 15:10 | 37.99756 | 27.91633 | 37106 ft | 503 kts | 120° |
| 2026-05-08 15:11 | 37.96782 | 27.99697 | 37120 ft | 508 kts | 116° |
| 2026-05-08 15:11 | 37.94030 | 28.07957 | 37116 ft | 508 kts | 115° |
| 2026-05-08 15:12 | 37.91245 | 28.16174 | 37114 ft | 507 kts | 116° |
| 2026-05-08 15:12 | 37.88411 | 28.24323 | 37137 ft | 504 kts | 116° |
| 2026-05-08 15:13 | 37.85568 | 28.32421 | 37153 ft | 502 kts | 116° |
| 2026-05-08 15:13 | 37.82728 | 28.40498 | 37170 ft | 501 kts | 116° |
| 2026-05-08 15:14 | 37.79893 | 28.48548 | 37159 ft | 502 kts | 116° |
| 2026-05-08 15:14 | 37.77051 | 28.56601 | 37170 ft | 501 kts | 116° |
| 2026-05-08 15:15 | 37.74220 | 28.64603 | 37165 ft | 502 kts | 116° |
| 2026-05-08 15:15 | 37.71354 | 28.72667 | 37170 ft | 504 kts | 116° |
| 2026-05-08 15:16 | 37.68436 | 28.80713 | 37177 ft | 505 kts | 117° |
| 2026-05-08 15:16 | 37.65493 | 28.88774 | 37172 ft | 506 kts | 117° |
| 2026-05-08 15:17 | 37.62542 | 28.96858 | 37173 ft | 507 kts | 117° |